sensor_id;sensor_type;location;lat;lon;timestamp;pressure;altitude;pressure_sealevel;temperature;humidity
7888;BME280;3989;48.810;9.208;2023-05-09T00:02:36;98978.47;;;12.68;nan
7888;BME280;3989;48.810;9.208;2023-05-09T00:08:38;99067.91;;;13.18;nan
7888;BME280;3989;48.810;9.208;2023-05-09T00:11:08;98736.16;;;11.06;nan
7888;BME280;3989;48.810;9.208;2023-05-09T00:14:03;98931.53;;;12.22;nan
7888;BME280;3989;48.810;9.208;2023-05-09T00:23:01;98836.47;;;11.75;nan
7888;BME280;3989;48.810;9.208;2023-05-09T00:25:52;98697.28;;;10.89;nan
7888;BME280;3989;48.810;9.208;2023-05-09T00:29:00;98699.13;;;10.88;nan
7888;BME280;3989;48.810;9.208;2023-05-09T00:32:17;98656.72;;;10.41;nan
7888;BME280;3989;48.810;9.208;2023-05-09T00:35:07;99049.72;;;12.98;nan
7888;BME280;3989;48.810;9.208;2023-05-09T00:37:50;98808.97;;;11.52;nan
7888;BME280;3989;48.810;9.208;2023-05-09T00:40:42;99045.84;;;12.86;nan
7888;BME280;3989;48.810;9.208;2023-05-09T00:43:35;99039.59;;;12.79;nan
7888;BME280;3989;48.810;9.208;2023-05-09T00:46:35;98965.84;;;12.33;nan
7888;BME280;3989;48.810;9.208;2023-05-09T00:49:28;98806.94;;;11.39;nan
7888;BME280;3989;48.810;9.208;2023-05-09T00:52:26;99043.19;;;12.72;nan
7888;BME280;3989;48.810;9.208;2023-05-09T00:58:01;99009.28;;;12.64;nan
7888;BME280;3989;48.810;9.208;2023-05-09T01:00:28;99015.13;;;12.68;nan
7888;BME280;3989;48.810;9.208;2023-05-09T01:02:55;99014.47;;;12.66;nan
7888;BME280;3989;48.810;9.208;2023-05-09T01:05:28;98981.09;;;12.47;nan
7888;BME280;3989;48.810;9.208;2023-05-09T01:08:02;98954.06;;;12.27;nan
7888;BME280;3989;48.810;9.208;2023-05-09T01:10:38;99011.34;;;12.62;nan
7888;BME280;3989;48.810;9.208;2023-05-09T01:13:23;98961.97;;;12.35;nan
7888;BME280;3989;48.810;9.208;2023-05-09T01:15:53;98979.13;;;12.41;nan
7888;BME280;3989;48.810;9.208;2023-05-09T01:18:28;98988.91;;;12.48;nan
7888;BME280;3989;48.810;9.208;2023-05-09T01:21:04;98897.50;;;11.86;nan
7888;BME280;3989;48.810;9.208;2023-05-09T01:23:58;99011.59;;;12.67;nan
7888;BME280;3989;48.810;9.208;2023-05-09T01:26:42;99005.63;;;12.65;nan
7888;BME280;3989;48.810;9.208;2023-05-09T01:29:19;99002.84;;;12.58;nan
7888;BME280;3989;48.810;9.208;2023-05-09T01:31:51;99006.28;;;12.52;nan
7888;BME280;3989;48.810;9.208;2023-05-09T01:34:20;98864.81;;;11.62;nan
7888;BME280;3989;48.810;9.208;2023-05-09T01:36:49;99010.53;;;12.47;nan
7888;BME280;3989;48.810;9.208;2023-05-09T01:39:17;99004.44;;;12.53;nan
7888;BME280;3989;48.810;9.208;2023-05-09T01:41:45;99008.56;;;12.55;nan
7888;BME280;3989;48.810;9.208;2023-05-09T01:44:15;98989.75;;;12.49;nan
7888;BME280;3989;48.810;9.208;2023-05-09T01:46:43;98999.06;;;12.53;nan
7888;BME280;3989;48.810;9.208;2023-05-09T01:49:10;98992.06;;;12.52;nan
7888;BME280;3989;48.810;9.208;2023-05-09T01:51:38;98988.38;;;12.53;nan
7888;BME280;3989;48.810;9.208;2023-05-09T01:54:05;98994.56;;;12.53;nan
7888;BME280;3989;48.810;9.208;2023-05-09T01:56:32;98968.63;;;12.39;nan
7888;BME280;3989;48.810;9.208;2023-05-09T01:59:01;98985.78;;;12.45;nan
7888;BME280;3989;48.810;9.208;2023-05-09T02:01:29;98984.94;;;12.44;nan
7888;BME280;3989;48.810;9.208;2023-05-09T02:03:57;98990.28;;;12.44;nan
7888;BME280;3989;48.810;9.208;2023-05-09T02:06:24;98984.47;;;12.41;nan
7888;BME280;3989;48.810;9.208;2023-05-09T02:08:54;98893.56;;;11.82;nan
7888;BME280;3989;48.810;9.208;2023-05-09T02:11:21;98970.09;;;12.27;nan
7888;BME280;3989;48.810;9.208;2023-05-09T02:13:48;98986.06;;;12.35;nan
7888;BME280;3989;48.810;9.208;2023-05-09T02:16:14;98993.34;;;12.41;nan
7888;BME280;3989;48.810;9.208;2023-05-09T02:18:42;98960.59;;;12.25;nan
7888;BME280;3989;48.810;9.208;2023-05-09T02:21:10;98949.25;;;12.23;nan
7888;BME280;3989;48.810;9.208;2023-05-09T02:23:37;98992.88;;;12.52;nan
7888;BME280;3989;48.810;9.208;2023-05-09T02:26:03;98995.19;;;12.55;nan
7888;BME280;3989;48.810;9.208;2023-05-09T02:28:31;98973.97;;;12.39;nan
7888;BME280;3989;48.810;9.208;2023-05-09T02:30:59;98872.59;;;11.86;nan
7888;BME280;3989;48.810;9.208;2023-05-09T02:33:28;98993.22;;;12.64;nan
7888;BME280;3989;48.810;9.208;2023-05-09T02:35:57;98990.56;;;12.64;nan
7888;BME280;3989;48.810;9.208;2023-05-09T02:38:23;98993.91;;;12.66;nan
7888;BME280;3989;48.810;9.208;2023-05-09T02:40:52;98997.59;;;12.65;nan
7888;BME280;3989;48.810;9.208;2023-05-09T02:43:18;98987.25;;;12.62;nan
7888;BME280;3989;48.810;9.208;2023-05-09T02:45:45;98990.09;;;12.60;nan
7888;BME280;3989;48.810;9.208;2023-05-09T02:48:11;98978.59;;;12.60;nan
7888;BME280;3989;48.810;9.208;2023-05-09T02:50:38;98920.81;;;12.22;nan
7888;BME280;3989;48.810;9.208;2023-05-09T02:53:08;98976.81;;;12.52;nan
7888;BME280;3989;48.810;9.208;2023-05-09T02:55:35;98977.19;;;12.49;nan
7888;BME280;3989;48.810;9.208;2023-05-09T02:58:01;98935.31;;;12.27;nan
7888;BME280;3989;48.810;9.208;2023-05-09T03:00:28;98867.44;;;11.84;nan
7888;BME280;3989;48.810;9.208;2023-05-09T03:02:54;98868.06;;;11.86;nan
7888;BME280;3989;48.810;9.208;2023-05-09T03:05:21;98927.22;;;12.21;nan
7888;BME280;3989;48.810;9.208;2023-05-09T03:07:47;98892.34;;;11.99;nan
7888;BME280;3989;48.810;9.208;2023-05-09T03:10:17;98946.91;;;12.34;nan
7888;BME280;3989;48.810;9.208;2023-05-09T03:12:43;98972.31;;;12.38;nan
7888;BME280;3989;48.810;9.208;2023-05-09T03:15:10;98932.34;;;12.22;nan
7888;BME280;3989;48.810;9.208;2023-05-09T03:17:36;98866.72;;;11.76;nan
7888;BME280;3989;48.810;9.208;2023-05-09T03:20:04;98955.91;;;12.27;nan
7888;BME280;3989;48.810;9.208;2023-05-09T03:22:32;98955.78;;;12.35;nan
7888;BME280;3989;48.810;9.208;2023-05-09T03:24:58;98955.41;;;12.38;nan
7888;BME280;3989;48.810;9.208;2023-05-09T03:27:26;98955.41;;;12.38;nan
7888;BME280;3989;48.810;9.208;2023-05-09T03:29:53;98843.81;;;11.73;nan
7888;BME280;3989;48.810;9.208;2023-05-09T03:32:19;98937.63;;;12.30;nan
7888;BME280;3989;48.810;9.208;2023-05-09T03:34:46;98785.56;;;11.39;nan
7888;BME280;3989;48.810;9.208;2023-05-09T03:37:12;98807.66;;;11.48;nan
7888;BME280;3989;48.810;9.208;2023-05-09T03:39:39;98921.84;;;12.21;nan
7888;BME280;3989;48.810;9.208;2023-05-09T03:42:05;98813.94;;;11.55;nan
7888;BME280;3989;48.810;9.208;2023-05-09T03:44:33;98847.72;;;11.71;nan
7888;BME280;3989;48.810;9.208;2023-05-09T03:47:00;98892.16;;;12.01;nan
7888;BME280;3989;48.810;9.208;2023-05-09T03:49:26;98930.59;;;12.29;nan
7888;BME280;3989;48.810;9.208;2023-05-09T03:51:53;98755.69;;;11.21;nan
7888;BME280;3989;48.810;9.208;2023-05-09T03:54:20;98920.19;;;12.20;nan
7888;BME280;3989;48.810;9.208;2023-05-09T03:56:46;98931.69;;;12.35;nan
7888;BME280;3989;48.810;9.208;2023-05-09T03:59:13;98923.41;;;12.30;nan
7888;BME280;3989;48.810;9.208;2023-05-09T04:01:41;98932.16;;;12.38;nan
7888;BME280;3989;48.810;9.208;2023-05-09T04:04:07;98875.53;;;12.05;nan
7888;BME280;3989;48.810;9.208;2023-05-09T04:06:35;98954.69;;;12.44;nan
7888;BME280;3989;48.810;9.208;2023-05-09T04:09:01;98843.63;;;11.89;nan
7888;BME280;3989;48.810;9.208;2023-05-09T04:11:28;98878.50;;;12.10;nan
7888;BME280;3989;48.810;9.208;2023-05-09T04:13:54;98897.66;;;12.29;nan
7888;BME280;3989;48.810;9.208;2023-05-09T04:16:21;98900.41;;;12.35;nan
7888;BME280;3989;48.810;9.208;2023-05-09T04:18:49;98897.50;;;12.30;nan
7888;BME280;3989;48.810;9.208;2023-05-09T04:21:15;98893.59;;;12.33;nan
7888;BME280;3989;48.810;9.208;2023-05-09T04:23:42;98915.19;;;12.46;nan
7888;BME280;3989;48.810;9.208;2023-05-09T04:26:08;98916.84;;;12.47;nan
7888;BME280;3989;48.810;9.208;2023-05-09T04:28:36;98923.75;;;12.56;nan
7888;BME280;3989;48.810;9.208;2023-05-09T04:31:03;98895.66;;;12.31;nan
7888;BME280;3989;48.810;9.208;2023-05-09T04:33:30;98929.47;;;12.53;nan
7888;BME280;3989;48.810;9.208;2023-05-09T04:35:58;98939.44;;;12.59;nan
7888;BME280;3989;48.810;9.208;2023-05-09T04:38:25;98917.28;;;12.50;nan
7888;BME280;3989;48.810;9.208;2023-05-09T04:40:51;98908.16;;;12.45;nan
7888;BME280;3989;48.810;9.208;2023-05-09T04:43:18;98943.81;;;12.67;nan
7888;BME280;3989;48.810;9.208;2023-05-09T04:45:44;98944.94;;;12.72;nan
7888;BME280;3989;48.810;9.208;2023-05-09T04:48:12;98838.53;;;12.09;nan
7888;BME280;3989;48.810;9.208;2023-05-09T04:50:39;98953.13;;;12.85;nan
7888;BME280;3989;48.810;9.208;2023-05-09T04:53:07;98948.69;;;12.92;nan
7888;BME280;3989;48.810;9.208;2023-05-09T04:55:35;98953.72;;;13.02;nan
7888;BME280;3989;48.810;9.208;2023-05-09T04:58:01;98936.22;;;13.06;nan
7888;BME280;3989;48.810;9.208;2023-05-09T05:00:28;98937.06;;;13.21;nan
7888;BME280;3989;48.810;9.208;2023-05-09T05:02:55;98943.72;;;13.32;nan
7888;BME280;3989;48.810;9.208;2023-05-09T05:05:21;98944.00;;;13.37;nan
7888;BME280;3989;48.810;9.208;2023-05-09T05:07:48;98933.47;;;13.35;nan
7888;BME280;3989;48.810;9.208;2023-05-09T05:10:16;98939.78;;;13.49;nan
7888;BME280;3989;48.810;9.208;2023-05-09T05:12:42;98927.09;;;13.36;nan
7888;BME280;3989;48.810;9.208;2023-05-09T05:15:10;98911.63;;;13.38;nan
7888;BME280;3989;48.810;9.208;2023-05-09T05:17:37;98898.09;;;13.25;nan
7888;BME280;3989;48.810;9.208;2023-05-09T05:20:04;98938.59;;;13.58;nan
7888;BME280;3989;48.810;9.208;2023-05-09T05:22:32;98850.41;;;13.14;nan
7888;BME280;3989;48.810;9.208;2023-05-09T05:25:00;98938.03;;;13.90;nan
7888;BME280;3989;48.810;9.208;2023-05-09T05:27:29;98811.38;;;13.33;nan
7888;BME280;3989;48.810;9.208;2023-05-09T05:29:55;98876.50;;;13.82;nan
7888;BME280;3989;48.810;9.208;2023-05-09T05:32:22;98918.63;;;14.29;nan
7888;BME280;3989;48.810;9.208;2023-05-09T05:34:48;98941.00;;;14.36;nan
7888;BME280;3989;48.810;9.208;2023-05-09T05:37:15;98943.91;;;14.41;nan
7888;BME280;3989;48.810;9.208;2023-05-09T05:39:42;98920.84;;;14.47;nan
7888;BME280;3989;48.810;9.208;2023-05-09T05:42:09;98845.97;;;13.90;nan
7888;BME280;3989;48.810;9.208;2023-05-09T05:44:37;98917.78;;;14.56;nan
7888;BME280;3989;48.810;9.208;2023-05-09T05:47:03;98874.09;;;14.35;nan
7888;BME280;3989;48.810;9.208;2023-05-09T05:49:30;98797.28;;;13.93;nan
7888;BME280;3989;48.810;9.208;2023-05-09T05:51:57;98806.03;;;14.08;nan
7888;BME280;3989;48.810;9.208;2023-05-09T05:54:23;98864.88;;;14.50;nan
7888;BME280;3989;48.810;9.208;2023-05-09T05:56:50;98819.72;;;14.26;nan
7888;BME280;3989;48.810;9.208;2023-05-09T05:59:17;98811.13;;;14.37;nan
7888;BME280;3989;48.810;9.208;2023-05-09T06:01:45;98820.66;;;14.53;nan
7888;BME280;3989;48.810;9.208;2023-05-09T06:04:11;98856.47;;;14.80;nan
7888;BME280;3989;48.810;9.208;2023-05-09T06:06:38;98882.75;;;15.04;nan
7888;BME280;3989;48.810;9.208;2023-05-09T06:09:04;98907.19;;;15.42;nan
7888;BME280;3989;48.810;9.208;2023-05-09T06:11:31;98844.13;;;15.11;nan
7888;BME280;3989;48.810;9.208;2023-05-09T06:13:57;98887.13;;;15.64;nan
7888;BME280;3989;48.810;9.208;2023-05-09T06:16:24;98775.00;;;15.45;nan
7888;BME280;3989;48.810;9.208;2023-05-09T06:18:52;98920.03;;;16.69;nan
7888;BME280;3989;48.810;9.208;2023-05-09T06:21:19;98916.06;;;17.10;nan
7888;BME280;3989;48.810;9.208;2023-05-09T06:23:45;98834.56;;;16.83;nan
7888;BME280;3989;48.810;9.208;2023-05-09T06:26:12;98904.84;;;17.44;nan
7888;BME280;3989;48.810;9.208;2023-05-09T06:28:39;98905.91;;;17.68;nan
7888;BME280;3989;48.810;9.208;2023-05-09T06:31:06;98894.03;;;17.94;nan
7888;BME280;3989;48.810;9.208;2023-05-09T06:33:32;98861.19;;;17.97;nan
7888;BME280;3989;48.810;9.208;2023-05-09T06:36:00;98838.09;;;18.01;nan
7888;BME280;3989;48.810;9.208;2023-05-09T06:38:27;98803.00;;;17.82;nan
7888;BME280;3989;48.810;9.208;2023-05-09T06:40:54;98848.28;;;17.99;nan
7888;BME280;3989;48.810;9.208;2023-05-09T06:43:21;98760.97;;;17.50;nan
7888;BME280;3989;48.810;9.208;2023-05-09T06:45:49;98752.22;;;17.30;nan
7888;BME280;3989;48.810;9.208;2023-05-09T06:48:16;98814.22;;;17.55;nan
7888;BME280;3989;48.810;9.208;2023-05-09T06:50:42;98784.00;;;17.28;nan
7888;BME280;3989;48.810;9.208;2023-05-09T06:53:10;98792.94;;;17.28;nan
7888;BME280;3989;48.810;9.208;2023-05-09T06:55:37;98772.25;;;17.16;nan
7888;BME280;3989;48.810;9.208;2023-05-09T06:58:04;98763.00;;;17.30;nan
7888;BME280;3989;48.810;9.208;2023-05-09T07:00:30;98824.28;;;18.09;nan
7888;BME280;3989;48.810;9.208;2023-05-09T07:02:57;98880.13;;;18.81;nan
7888;BME280;3989;48.810;9.208;2023-05-09T07:05:23;98869.13;;;18.94;nan
7888;BME280;3989;48.810;9.208;2023-05-09T07:07:50;98668.94;;;17.76;nan
7888;BME280;3989;48.810;9.208;2023-05-09T07:10:20;98678.00;;;18.12;nan
7888;BME280;3989;48.810;9.208;2023-05-09T07:12:47;98620.69;;;18.10;nan
7888;BME280;3989;48.810;9.208;2023-05-09T07:15:15;98818.94;;;19.51;nan
7888;BME280;3989;48.810;9.208;2023-05-09T07:17:41;98717.94;;;19.04;nan
7888;BME280;3989;48.810;9.208;2023-05-09T07:20:08;98790.44;;;19.49;nan
7888;BME280;3989;48.810;9.208;2023-05-09T07:22:35;98781.03;;;19.51;nan
7888;BME280;3989;48.810;9.208;2023-05-09T07:25:02;98697.81;;;19.00;nan
7888;BME280;3989;48.810;9.208;2023-05-09T07:27:30;98855.63;;;20.05;nan
7888;BME280;3989;48.810;9.208;2023-05-09T07:29:56;98848.31;;;20.06;nan
7888;BME280;3989;48.810;9.208;2023-05-09T07:32:23;98795.72;;;19.78;nan
7888;BME280;3989;48.810;9.208;2023-05-09T07:34:52;98829.38;;;20.06;nan
7888;BME280;3989;48.810;9.208;2023-05-09T07:37:19;98823.69;;;20.07;nan
7888;BME280;3989;48.810;9.208;2023-05-09T07:39:45;98722.28;;;19.63;nan
7888;BME280;3989;48.810;9.208;2023-05-09T07:42:12;98817.41;;;20.41;nan
7888;BME280;3989;48.810;9.208;2023-05-09T07:44:40;98798.44;;;20.30;nan
7888;BME280;3989;48.810;9.208;2023-05-09T07:47:07;98665.56;;;19.45;nan
7888;BME280;3989;48.810;9.208;2023-05-09T07:49:33;98791.50;;;20.34;nan
7888;BME280;3989;48.810;9.208;2023-05-09T07:52:00;98798.50;;;20.47;nan
7888;BME280;3989;48.810;9.208;2023-05-09T07:54:27;98811.00;;;20.76;nan
7888;BME280;3989;48.810;9.208;2023-05-09T07:56:53;98614.19;;;19.73;nan
7888;BME280;3989;48.810;9.208;2023-05-09T07:59:20;98674.72;;;19.67;nan
7888;BME280;3989;48.810;9.208;2023-05-09T08:01:48;98671.06;;;19.62;nan
7888;BME280;3989;48.810;9.208;2023-05-09T08:04:15;98784.28;;;20.39;nan
7888;BME280;3989;48.810;9.208;2023-05-09T08:06:41;98746.00;;;20.24;nan
7888;BME280;3989;48.810;9.208;2023-05-09T08:09:08;98748.66;;;20.48;nan
7888;BME280;3989;48.810;9.208;2023-05-09T08:11:35;98560.63;;;19.47;nan
7888;BME280;3989;48.810;9.208;2023-05-09T08:14:02;98761.53;;;21.02;nan
7888;BME280;3989;48.810;9.208;2023-05-09T08:16:28;98739.59;;;20.87;nan
7888;BME280;3989;48.810;9.208;2023-05-09T08:18:56;98729.03;;;20.57;nan
7888;BME280;3989;48.810;9.208;2023-05-09T08:21:23;98745.94;;;20.48;nan
7888;BME280;3989;48.810;9.208;2023-05-09T08:23:50;98724.47;;;20.18;nan
7888;BME280;3989;48.810;9.208;2023-05-09T08:26:18;98744.34;;;19.95;nan
7888;BME280;3989;48.810;9.208;2023-05-09T08:28:46;98740.84;;;19.83;nan
7888;BME280;3989;48.810;9.208;2023-05-09T08:31:13;98746.00;;;19.96;nan
7888;BME280;3989;48.810;9.208;2023-05-09T08:33:39;98699.41;;;19.82;nan
7888;BME280;3989;48.810;9.208;2023-05-09T08:36:08;98738.94;;;20.23;nan
7888;BME280;3989;48.810;9.208;2023-05-09T08:38:34;98667.44;;;19.96;nan
7888;BME280;3989;48.810;9.208;2023-05-09T08:41:03;98718.53;;;20.61;nan
7888;BME280;3989;48.810;9.208;2023-05-09T08:43:32;98681.25;;;20.68;nan
7888;BME280;3989;48.810;9.208;2023-05-09T08:46:02;98682.94;;;20.90;nan
7888;BME280;3989;48.810;9.208;2023-05-09T08:48:30;98712.06;;;21.28;nan
7888;BME280;3989;48.810;9.208;2023-05-09T08:51:02;98705.47;;;21.24;nan
7888;BME280;3989;48.810;9.208;2023-05-09T08:53:30;98713.69;;;21.29;nan
7888;BME280;3989;48.810;9.208;2023-05-09T08:55:57;98701.72;;;21.25;nan
7888;BME280;3989;48.810;9.208;2023-05-09T08:58:24;98720.50;;;21.49;nan
7888;BME280;3989;48.810;9.208;2023-05-09T09:00:51;98640.53;;;21.18;nan
7888;BME280;3989;48.810;9.208;2023-05-09T09:03:19;98698.72;;;21.65;nan
7888;BME280;3989;48.810;9.208;2023-05-09T09:05:47;98686.28;;;21.91;nan
7888;BME280;3989;48.810;9.208;2023-05-09T09:08:14;98727.03;;;22.34;nan
7888;BME280;3989;48.810;9.208;2023-05-09T09:10:43;98706.25;;;22.50;nan
7888;BME280;3989;48.810;9.208;2023-05-09T09:13:12;98698.81;;;22.67;nan
7888;BME280;3989;48.810;9.208;2023-05-09T09:15:40;98713.16;;;22.89;nan
7888;BME280;3989;48.810;9.208;2023-05-09T09:18:11;98708.19;;;23.13;nan
7888;BME280;3989;48.810;9.208;2023-05-09T09:20:41;98675.75;;;23.07;nan
7888;BME280;3989;48.810;9.208;2023-05-09T09:23:11;98695.56;;;23.39;nan
7888;BME280;3989;48.810;9.208;2023-05-09T09:25:44;98677.91;;;23.46;nan
7888;BME280;3989;48.810;9.208;2023-05-09T09:28:11;98680.38;;;23.53;nan
7888;BME280;3989;48.810;9.208;2023-05-09T09:30:42;98691.44;;;23.36;nan
7888;BME280;3989;48.810;9.208;2023-05-09T09:33:09;98692.06;;;23.43;nan
7888;BME280;3989;48.810;9.208;2023-05-09T09:35:37;98679.41;;;23.74;nan
7888;BME280;3989;48.810;9.208;2023-05-09T09:38:05;98648.69;;;23.94;nan
7888;BME280;3989;48.810;9.208;2023-05-09T09:40:31;98668.94;;;24.13;nan
7888;BME280;3989;48.810;9.208;2023-05-09T09:42:59;98663.25;;;24.25;nan
7888;BME280;3989;48.810;9.208;2023-05-09T09:45:25;98514.63;;;23.15;nan
7888;BME280;3989;48.810;9.208;2023-05-09T09:47:52;98595.44;;;23.61;nan
7888;BME280;3989;48.810;9.208;2023-05-09T09:50:19;98662.44;;;24.29;nan
7888;BME280;3989;48.810;9.208;2023-05-09T09:52:51;98611.34;;;23.99;nan
7888;BME280;3989;48.810;9.208;2023-05-09T09:55:19;98645.19;;;24.03;nan
7888;BME280;3989;48.810;9.208;2023-05-09T09:57:46;98649.81;;;24.03;nan
7888;BME280;3989;48.810;9.208;2023-05-09T10:00:16;98621.69;;;23.97;nan
7888;BME280;3989;48.810;9.208;2023-05-09T10:02:47;98635.44;;;24.23;nan
7888;BME280;3989;48.810;9.208;2023-05-09T10:05:18;98599.16;;;24.12;nan
7888;BME280;3989;48.810;9.208;2023-05-09T10:07:49;98604.88;;;24.31;nan
7888;BME280;3989;48.810;9.208;2023-05-09T10:10:17;98562.28;;;23.89;nan
7888;BME280;3989;48.810;9.208;2023-05-09T10:12:44;98532.00;;;23.71;nan
7888;BME280;3989;48.810;9.208;2023-05-09T10:15:11;98616.63;;;24.26;nan
7888;BME280;3989;48.810;9.208;2023-05-09T10:17:41;98618.78;;;24.19;nan
7888;BME280;3989;48.810;9.208;2023-05-09T10:20:09;98603.53;;;24.28;nan
7888;BME280;3989;48.810;9.208;2023-05-09T10:22:38;98599.69;;;24.19;nan
7888;BME280;3989;48.810;9.208;2023-05-09T10:25:09;98517.53;;;23.65;nan
7888;BME280;3989;48.810;9.208;2023-05-09T10:27:44;98546.25;;;24.13;nan
7888;BME280;3989;48.810;9.208;2023-05-09T10:30:14;98578.69;;;24.50;nan
7888;BME280;3989;48.810;9.208;2023-05-09T10:32:47;98581.97;;;24.62;nan
7888;BME280;3989;48.810;9.208;2023-05-09T10:35:16;98535.63;;;24.17;nan
7888;BME280;3989;48.810;9.208;2023-05-09T10:37:44;98552.00;;;24.42;nan
7888;BME280;3989;48.810;9.208;2023-05-09T10:40:11;98566.44;;;24.58;nan
7888;BME280;3989;48.810;9.208;2023-05-09T10:42:40;98541.03;;;24.77;nan
7888;BME280;3989;48.810;9.208;2023-05-09T10:45:08;98419.97;;;24.48;nan
7888;BME280;3989;48.810;9.208;2023-05-09T10:47:36;98417.72;;;24.65;nan
7888;BME280;3989;48.810;9.208;2023-05-09T10:50:06;98474.06;;;25.05;nan
7888;BME280;3989;48.810;9.208;2023-05-09T10:52:33;98517.28;;;24.73;nan
7888;BME280;3989;48.810;9.208;2023-05-09T10:55:00;98553.03;;;24.86;nan
7888;BME280;3989;48.810;9.208;2023-05-09T10:57:29;98542.91;;;25.02;nan
7888;BME280;3989;48.810;9.208;2023-05-09T10:59:57;98544.50;;;25.08;nan
7888;BME280;3989;48.810;9.208;2023-05-09T11:02:24;98530.84;;;25.13;nan
7888;BME280;3989;48.810;9.208;2023-05-09T11:05:17;98483.72;;;24.82;nan
7888;BME280;3989;48.810;9.208;2023-05-09T11:07:44;98542.75;;;25.42;nan
7888;BME280;3989;48.810;9.208;2023-05-09T11:10:14;98520.47;;;25.69;nan
7888;BME280;3989;48.810;9.208;2023-05-09T11:12:55;98504.41;;;26.01;nan
7888;BME280;3989;48.810;9.208;2023-05-09T11:15:22;98487.66;;;26.08;nan
7888;BME280;3989;48.810;9.208;2023-05-09T11:18:04;98488.78;;;26.07;nan
7888;BME280;3989;48.810;9.208;2023-05-09T11:20:34;98495.03;;;26.13;nan
7888;BME280;3989;48.810;9.208;2023-05-09T11:23:03;98493.69;;;26.10;nan
7888;BME280;3989;48.810;9.208;2023-05-09T11:25:31;98481.94;;;26.09;nan
7888;BME280;3989;48.810;9.208;2023-05-09T11:28:00;98453.97;;;25.84;nan
7888;BME280;3989;48.810;9.208;2023-05-09T11:30:38;98465.72;;;26.23;nan
7888;BME280;3989;48.810;9.208;2023-05-09T11:33:06;98458.19;;;26.34;nan
7888;BME280;3989;48.810;9.208;2023-05-09T11:36:14;98469.59;;;26.12;nan
7888;BME280;3989;48.810;9.208;2023-05-09T11:38:41;98439.31;;;25.70;nan
7888;BME280;3989;48.810;9.208;2023-05-09T11:41:08;98457.06;;;25.72;nan
7888;BME280;3989;48.810;9.208;2023-05-09T11:43:35;98449.00;;;25.91;nan
7888;BME280;3989;48.810;9.208;2023-05-09T11:46:02;98450.88;;;25.95;nan
7888;BME280;3989;48.810;9.208;2023-05-09T11:48:29;98394.19;;;25.33;nan
7888;BME280;3989;48.810;9.208;2023-05-09T11:50:57;98450.09;;;25.90;nan
7888;BME280;3989;48.810;9.208;2023-05-09T11:53:23;98438.06;;;25.91;nan
7888;BME280;3989;48.810;9.208;2023-05-09T11:55:50;98442.41;;;25.58;nan
7888;BME280;3989;48.810;9.208;2023-05-09T11:58:16;98343.03;;;25.05;nan
7888;BME280;3989;48.810;9.208;2023-05-09T12:00:44;98436.69;;;25.93;nan
7888;BME280;3989;48.810;9.208;2023-05-09T12:03:11;98414.53;;;25.61;nan
7888;BME280;3989;48.810;9.208;2023-05-09T12:05:38;98398.16;;;25.56;nan
7888;BME280;3989;48.810;9.208;2023-05-09T12:08:08;98307.84;;;25.37;nan
7888;BME280;3989;48.810;9.208;2023-05-09T12:10:36;98393.19;;;25.92;nan
7888;BME280;3989;48.810;9.208;2023-05-09T12:13:09;98413.91;;;26.03;nan
7888;BME280;3989;48.810;9.208;2023-05-09T12:15:36;98400.13;;;26.13;nan
7888;BME280;3989;48.810;9.208;2023-05-09T12:18:04;98374.91;;;26.21;nan
7888;BME280;3989;48.810;9.208;2023-05-09T12:20:42;98405.50;;;26.52;nan
7888;BME280;3989;48.810;9.208;2023-05-09T12:23:11;98326.41;;;26.03;nan
7888;BME280;3989;48.810;9.208;2023-05-09T12:25:38;98354.94;;;26.44;nan
7888;BME280;3989;48.810;9.208;2023-05-09T12:28:05;98387.72;;;26.73;nan
7888;BME280;3989;48.810;9.208;2023-05-09T12:30:32;98339.81;;;26.52;nan
7888;BME280;3989;48.810;9.208;2023-05-09T12:32:58;98355.94;;;26.53;nan
7888;BME280;3989;48.810;9.208;2023-05-09T12:35:25;98271.66;;;25.55;nan
7888;BME280;3989;48.810;9.208;2023-05-09T12:37:55;98320.78;;;26.18;nan
7888;BME280;3989;48.810;9.208;2023-05-09T12:40:24;98351.38;;;26.68;nan
7888;BME280;3989;48.810;9.208;2023-05-09T12:42:52;98369.22;;;27.07;nan
7888;BME280;3989;48.810;9.208;2023-05-09T12:45:24;98368.69;;;27.24;nan
7888;BME280;3989;48.810;9.208;2023-05-09T12:47:51;98226.84;;;26.28;nan
7888;BME280;3989;48.810;9.208;2023-05-09T12:50:18;98346.63;;;26.97;nan
7888;BME280;3989;48.810;9.208;2023-05-09T12:52:49;98320.44;;;26.91;nan
7888;BME280;3989;48.810;9.208;2023-05-09T12:55:17;98321.16;;;27.15;nan
7888;BME280;3989;48.810;9.208;2023-05-09T12:57:57;98259.94;;;26.50;nan
7888;BME280;3989;48.810;9.208;2023-05-09T13:00:24;98263.59;;;26.40;nan
7888;BME280;3989;48.810;9.208;2023-05-09T13:02:50;98271.88;;;26.59;nan
7888;BME280;3989;48.810;9.208;2023-05-09T13:05:18;98318.94;;;27.36;nan
7888;BME280;3989;48.810;9.208;2023-05-09T13:07:45;98231.47;;;26.88;nan
7888;BME280;3989;48.810;9.208;2023-05-09T13:10:13;98254.63;;;26.96;nan
7888;BME280;3989;48.810;9.208;2023-05-09T13:12:40;98268.28;;;27.01;nan
7888;BME280;3989;48.810;9.208;2023-05-09T13:15:13;98273.94;;;26.86;nan
7888;BME280;3989;48.810;9.208;2023-05-09T13:17:39;98251.56;;;26.79;nan
7888;BME280;3989;48.810;9.208;2023-05-09T13:20:07;98290.38;;;27.04;nan
7888;BME280;3989;48.810;9.208;2023-05-09T13:22:34;98229.53;;;26.70;nan
7888;BME280;3989;48.810;9.208;2023-05-09T13:25:01;98261.75;;;26.97;nan
7888;BME280;3989;48.810;9.208;2023-05-09T13:27:28;98234.88;;;26.99;nan
7888;BME280;3989;48.810;9.208;2023-05-09T13:29:55;98210.16;;;26.85;nan
7888;BME280;3989;48.810;9.208;2023-05-09T13:32:25;98237.09;;;26.97;nan
7888;BME280;3989;48.810;9.208;2023-05-09T13:35:06;98147.72;;;26.13;nan
7888;BME280;3989;48.810;9.208;2023-05-09T13:37:39;98168.19;;;25.73;nan
7888;BME280;3989;48.810;9.208;2023-05-09T13:40:07;98271.94;;;25.83;nan
7888;BME280;3989;48.810;9.208;2023-05-09T13:42:35;98134.06;;;24.55;nan
7888;BME280;3989;48.810;9.208;2023-05-09T13:45:03;98262.19;;;25.09;nan
7888;BME280;3989;48.810;9.208;2023-05-09T13:47:37;98130.56;;;23.95;nan
7888;BME280;3989;48.810;9.208;2023-05-09T13:50:06;98104.75;;;23.83;nan
7888;BME280;3989;48.810;9.208;2023-05-09T13:52:33;98151.50;;;24.15;nan
7888;BME280;3989;48.810;9.208;2023-05-09T13:55:00;98253.25;;;24.98;nan
7888;BME280;3989;48.810;9.208;2023-05-09T13:57:27;98102.03;;;24.32;nan
7888;BME280;3989;48.810;9.208;2023-05-09T13:59:53;98132.75;;;24.81;nan
7888;BME280;3989;48.810;9.208;2023-05-09T14:02:20;98189.41;;;25.28;nan
7888;BME280;3989;48.810;9.208;2023-05-09T14:04:50;98111.25;;;24.75;nan
7888;BME280;3989;48.810;9.208;2023-05-09T14:07:17;98103.84;;;24.75;nan
7888;BME280;3989;48.810;9.208;2023-05-09T14:09:44;98137.03;;;24.92;nan